Terminal Aerodrome Forecast
Issued by NWS

Home | Current Version | Previous Version | Text Only | Print | Product List | Glossary On
Versions: 1 2 3 4 5 6 7 8 9 10 11 12 13
000
FTUS45 KPSR 300108 AAA
TAFSDL
TAF AMD
KSDL 300108Z 3001/3024 19010KT P6SM SKC
      TEMPO 3002/3004 23010G18KT
     FM300500 VRB04KT P6SM SKC=

USA.gov is the U.S. government's official web portal to all federal, state and local government web resources and services.